Denver International Airport
KDEN : rendu visible

Aérodrome :











RETROUVEZ-NOUS SUR...

 
LOGIN :

S'inscrire | Disclaimer

   EN    FR    IT 

 









Légende :    VFR   VFR Marginal   IFR   IFR Intensif   IFR Très Intensif
Visi : 
Plafond : 
>= 8 km
>= 3000ft
5 à 8 km
1000 à 3000 ft
1500m à 5 km
500 à 1000 ft
800 à 1500m
200 à 500 ft
< 800m
< 200 ft
Symboles :   Orages  Brouillard  Fortes neiges  Fortes précipitations  Vent > 20 kt






- Altitude de l'aérodrome : 5431 ft
- Code IATA : DEN


KDEN - Denver International

DERNIER METAR :
  • 171753Z 23019G25KT 10SM FEW080 SCT120 SCT200 12/M07 A2965 RMK AO2 PK WND 20031/1716 SLP027 T01221067 10122 21072 57015

METARs EXPIRÉS :
  • 171653Z 21013G22KT 10SM FEW080 FEW150 FEW200 11/M06 A2967 RMK AO2 SLP032 T01061056
  • 171553Z 16005KT 10SM FEW080 FEW150 FEW200 03/M05 A2969 RMK AO2 SLP057 T00331050

TAF KDEN
Valide du 17 à 19h jusqu'au 19 à 00h UTC


171835Z 1719/1824 29020G35KT P6SM FEW080 BKN120
FM172200 28025G40KT P6SM SCT080 BKN110
TEMPO 1722/1801 29030G48KT 4SM BLDU
FM180200 32012G23KT P6SM FEW150
FM180900 14008KT P6SM SCT200
FM182000 08008KT P6SM BKN180



MET'MAP, la Météo Aéronautique d'un coup d'oeil ! - Copyright ORBIFLY Décembre 2007 - Disclaimer

ORBIFLY MET'MAP TEAM :

Programmation & Développement : Alexandra Zaïnal
Sur une idée originale de : Baudouin d'Aumeries
Assistance à la programmation : Marc-Olivier Méhu
Soutien technique & logistique : Manuel Goepfert

Contact : metmap@orbifly.com




SOURCES & CREDITS :

   NOAA       Earth
Advisory